sensor_id;sensor_type;location;lat;lon;timestamp;temperature;humidity
2973;DHT22;1496;51.404;7.232;2023-08-07T00:00:41;12.60;99.90
2973;DHT22;1496;51.404;7.232;2023-08-07T00:03:07;12.60;99.90
2973;DHT22;1496;51.404;7.232;2023-08-07T00:05:32;12.60;99.90
2973;DHT22;1496;51.404;7.232;2023-08-07T00:07:58;12.60;99.90
2973;DHT22;1496;51.404;7.232;2023-08-07T00:10:24;12.60;99.90
2973;DHT22;1496;51.404;7.232;2023-08-07T00:12:50;12.60;99.90
2973;DHT22;1496;51.404;7.232;2023-08-07T00:15:16;12.60;99.90
2973;DHT22;1496;51.404;7.232;2023-08-07T00:17:41;12.60;99.90
2973;DHT22;1496;51.404;7.232;2023-08-07T00:20:08;12.60;99.90
2973;DHT22;1496;51.404;7.232;2023-08-07T00:22:34;12.60;99.90
2973;DHT22;1496;51.404;7.232;2023-08-07T00:24:59;12.60;99.90
2973;DHT22;1496;51.404;7.232;2023-08-07T00:27:25;12.70;99.90
2973;DHT22;1496;51.404;7.232;2023-08-07T00:29:51;12.60;99.90
2973;DHT22;1496;51.404;7.232;2023-08-07T00:32:17;12.60;99.90
2973;DHT22;1496;51.404;7.232;2023-08-07T00:34:43;12.60;99.90
2973;DHT22;1496;51.404;7.232;2023-08-07T00:37:08;12.60;99.90
2973;DHT22;1496;51.404;7.232;2023-08-07T00:39:34;12.70;99.90
2973;DHT22;1496;51.404;7.232;2023-08-07T00:42:00;12.70;99.90
2973;DHT22;1496;51.404;7.232;2023-08-07T00:44:25;12.70;99.90
2973;DHT22;1496;51.404;7.232;2023-08-07T00:46:51;12.60;99.90
2973;DHT22;1496;51.404;7.232;2023-08-07T00:49:18;12.70;99.90
2973;DHT22;1496;51.404;7.232;2023-08-07T00:51:44;12.70;99.90
2973;DHT22;1496;51.404;7.232;2023-08-07T00:54:11;12.70;99.90
2973;DHT22;1496;51.404;7.232;2023-08-07T00:56:40;12.60;99.90
2973;DHT22;1496;51.404;7.232;2023-08-07T00:59:05;12.60;99.90
2973;DHT22;1496;51.404;7.232;2023-08-07T01:01:32;12.70;99.90
2973;DHT22;1496;51.404;7.232;2023-08-07T01:03:57;12.70;99.90
2973;DHT22;1496;51.404;7.232;2023-08-07T01:06:23;12.70;99.90
2973;DHT22;1496;51.404;7.232;2023-08-07T01:08:49;12.70;99.90
2973;DHT22;1496;51.404;7.232;2023-08-07T01:14:08;12.60;99.90
2973;DHT22;1496;51.404;7.232;2023-08-07T01:19:24;12.60;99.90
2973;DHT22;1496;51.404;7.232;2023-08-07T01:22:03;12.60;99.90
2973;DHT22;1496;51.404;7.232;2023-08-07T01:24:28;12.60;99.90
2973;DHT22;1496;51.404;7.232;2023-08-07T01:26:57;12.60;99.90
2973;DHT22;1496;51.404;7.232;2023-08-07T01:29:33;12.60;99.90
2973;DHT22;1496;51.404;7.232;2023-08-07T01:32:03;12.60;99.90
2973;DHT22;1496;51.404;7.232;2023-08-07T01:34:31;12.60;99.90
2973;DHT22;1496;51.404;7.232;2023-08-07T01:37:00;12.60;99.90
2973;DHT22;1496;51.404;7.232;2023-08-07T01:39:27;12.60;99.90
2973;DHT22;1496;51.404;7.232;2023-08-07T01:41:53;12.50;99.90
2973;DHT22;1496;51.404;7.232;2023-08-07T01:44:20;12.50;99.90
2973;DHT22;1496;51.404;7.232;2023-08-07T01:46:45;12.50;99.90
2973;DHT22;1496;51.404;7.232;2023-08-07T01:49:11;12.50;99.90
2973;DHT22;1496;51.404;7.232;2023-08-07T01:51:37;12.50;99.90
2973;DHT22;1496;51.404;7.232;2023-08-07T01:54:03;12.40;99.90
2973;DHT22;1496;51.404;7.232;2023-08-07T01:56:28;12.50;99.90
2973;DHT22;1496;51.404;7.232;2023-08-07T01:58:54;12.50;99.90
2973;DHT22;1496;51.404;7.232;2023-08-07T02:01:20;12.50;99.90
2973;DHT22;1496;51.404;7.232;2023-08-07T02:03:45;12.50;99.90
2973;DHT22;1496;51.404;7.232;2023-08-07T02:06:11;12.50;99.90
2973;DHT22;1496;51.404;7.232;2023-08-07T02:08:36;12.50;99.90
2973;DHT22;1496;51.404;7.232;2023-08-07T02:11:02;12.50;99.90
2973;DHT22;1496;51.404;7.232;2023-08-07T02:13:28;12.50;99.90
2973;DHT22;1496;51.404;7.232;2023-08-07T02:15:54;12.50;99.90
2973;DHT22;1496;51.404;7.232;2023-08-07T02:18:19;12.50;99.90
2973;DHT22;1496;51.404;7.232;2023-08-07T02:20:45;12.50;99.90
2973;DHT22;1496;51.404;7.232;2023-08-07T02:23:11;12.50;99.90
2973;DHT22;1496;51.404;7.232;2023-08-07T02:25:37;12.50;99.90
2973;DHT22;1496;51.404;7.232;2023-08-07T02:28:03;12.40;99.90
2973;DHT22;1496;51.404;7.232;2023-08-07T02:30:30;12.50;99.90
2973;DHT22;1496;51.404;7.232;2023-08-07T02:32:55;12.50;99.90
2973;DHT22;1496;51.404;7.232;2023-08-07T02:35:21;12.50;99.90
2973;DHT22;1496;51.404;7.232;2023-08-07T02:37:47;12.50;99.90
2973;DHT22;1496;51.404;7.232;2023-08-07T02:40:12;12.50;99.90
2973;DHT22;1496;51.404;7.232;2023-08-07T02:42:41;12.50;99.90
2973;DHT22;1496;51.404;7.232;2023-08-07T02:45:08;12.50;99.90
2973;DHT22;1496;51.404;7.232;2023-08-07T02:47:34;12.50;99.90
2973;DHT22;1496;51.404;7.232;2023-08-07T02:49:59;12.50;99.90
2973;DHT22;1496;51.404;7.232;2023-08-07T02:52:25;12.50;99.90
2973;DHT22;1496;51.404;7.232;2023-08-07T02:54:51;12.50;99.90
2973;DHT22;1496;51.404;7.232;2023-08-07T02:57:17;12.50;99.90
2973;DHT22;1496;51.404;7.232;2023-08-07T02:59:42;12.50;99.90
2973;DHT22;1496;51.404;7.232;2023-08-07T03:02:08;12.50;99.90
2973;DHT22;1496;51.404;7.232;2023-08-07T03:04:34;12.50;99.90
2973;DHT22;1496;51.404;7.232;2023-08-07T03:07:00;12.50;99.90
2973;DHT22;1496;51.404;7.232;2023-08-07T03:09:25;12.50;99.90
2973;DHT22;1496;51.404;7.232;2023-08-07T03:11:51;12.40;99.90
2973;DHT22;1496;51.404;7.232;2023-08-07T03:14:17;12.50;99.90
2973;DHT22;1496;51.404;7.232;2023-08-07T03:16:42;12.40;99.90
2973;DHT22;1496;51.404;7.232;2023-08-07T03:19:08;12.50;99.90
2973;DHT22;1496;51.404;7.232;2023-08-07T03:21:34;12.50;99.90
2973;DHT22;1496;51.404;7.232;2023-08-07T03:23:59;12.40;99.90
2973;DHT22;1496;51.404;7.232;2023-08-07T03:26:25;12.50;99.90
2973;DHT22;1496;51.404;7.232;2023-08-07T03:28:51;12.50;99.90
2973;DHT22;1496;51.404;7.232;2023-08-07T03:31:17;12.50;99.90
2973;DHT22;1496;51.404;7.232;2023-08-07T03:33:43;12.50;99.90
2973;DHT22;1496;51.404;7.232;2023-08-07T03:36:09;12.50;99.90
2973;DHT22;1496;51.404;7.232;2023-08-07T03:38:35;12.40;99.90
2973;DHT22;1496;51.404;7.232;2023-08-07T03:41:01;12.50;99.90
2973;DHT22;1496;51.404;7.232;2023-08-07T03:43:28;12.50;99.90
2973;DHT22;1496;51.404;7.232;2023-08-07T03:45:57;12.40;99.90
2973;DHT22;1496;51.404;7.232;2023-08-07T03:48:22;12.40;99.90
2973;DHT22;1496;51.404;7.232;2023-08-07T03:50:49;12.50;99.90
2973;DHT22;1496;51.404;7.232;2023-08-07T03:53:16;12.40;99.90
2973;DHT22;1496;51.404;7.232;2023-08-07T03:55:49;12.50;99.90
2973;DHT22;1496;51.404;7.232;2023-08-07T03:58:16;12.40;99.90
2973;DHT22;1496;51.404;7.232;2023-08-07T04:00:41;12.40;99.90
2973;DHT22;1496;51.404;7.232;2023-08-07T04:03:08;12.40;99.90
2973;DHT22;1496;51.404;7.232;2023-08-07T04:05:34;12.30;99.90
2973;DHT22;1496;51.404;7.232;2023-08-07T04:07:59;12.30;99.90
2973;DHT22;1496;51.404;7.232;2023-08-07T04:10:25;12.40;99.90
2973;DHT22;1496;51.404;7.232;2023-08-07T04:12:51;12.50;99.90
2973;DHT22;1496;51.404;7.232;2023-08-07T04:15:17;12.50;99.90
2973;DHT22;1496;51.404;7.232;2023-08-07T04:17:42;12.50;99.90
2973;DHT22;1496;51.404;7.232;2023-08-07T04:20:08;12.50;99.90
2973;DHT22;1496;51.404;7.232;2023-08-07T04:22:34;12.50;99.90
2973;DHT22;1496;51.404;7.232;2023-08-07T04:25:00;12.40;99.90
2973;DHT22;1496;51.404;7.232;2023-08-07T04:27:26;12.40;99.90
2973;DHT22;1496;51.404;7.232;2023-08-07T04:29:52;12.40;99.90
2973;DHT22;1496;51.404;7.232;2023-08-07T04:32:18;12.40;99.90
2973;DHT22;1496;51.404;7.232;2023-08-07T04:34:44;12.50;99.90
2973;DHT22;1496;51.404;7.232;2023-08-07T04:37:09;12.50;99.90
2973;DHT22;1496;51.404;7.232;2023-08-07T04:39:35;12.40;99.90
2973;DHT22;1496;51.404;7.232;2023-08-07T04:42:02;12.50;99.90
2973;DHT22;1496;51.404;7.232;2023-08-07T04:44:28;12.50;99.90
2973;DHT22;1496;51.404;7.232;2023-08-07T04:46:53;12.50;99.90
2973;DHT22;1496;51.404;7.232;2023-08-07T04:49:19;12.50;99.90
2973;DHT22;1496;51.404;7.232;2023-08-07T04:51:44;12.30;99.90
2973;DHT22;1496;51.404;7.232;2023-08-07T04:54:10;12.40;99.90
2973;DHT22;1496;51.404;7.232;2023-08-07T04:56:37;12.40;99.90
2973;DHT22;1496;51.404;7.232;2023-08-07T04:59:03;12.30;99.90
2973;DHT22;1496;51.404;7.232;2023-08-07T05:01:28;12.40;99.90
2973;DHT22;1496;51.404;7.232;2023-08-07T05:03:54;12.40;99.90
2973;DHT22;1496;51.404;7.232;2023-08-07T05:06:19;12.30;99.90
2973;DHT22;1496;51.404;7.232;2023-08-07T05:08:45;12.30;99.90
2973;DHT22;1496;51.404;7.232;2023-08-07T05:11:11;12.30;99.90
2973;DHT22;1496;51.404;7.232;2023-08-07T05:13:36;12.30;99.90
2973;DHT22;1496;51.404;7.232;2023-08-07T05:16:02;12.40;99.90
2973;DHT22;1496;51.404;7.232;2023-08-07T05:18:28;12.30;99.90
2973;DHT22;1496;51.404;7.232;2023-08-07T05:20:53;12.30;99.90
2973;DHT22;1496;51.404;7.232;2023-08-07T05:23:19;12.30;99.90
2973;DHT22;1496;51.404;7.232;2023-08-07T05:25:46;12.30;99.90
2973;DHT22;1496;51.404;7.232;2023-08-07T05:28:13;12.20;99.90
2973;DHT22;1496;51.404;7.232;2023-08-07T05:30:38;12.30;99.90
2973;DHT22;1496;51.404;7.232;2023-08-07T05:33:04;12.20;99.90
2973;DHT22;1496;51.404;7.232;2023-08-07T05:35:30;12.30;99.90
2973;DHT22;1496;51.404;7.232;2023-08-07T05:37:55;12.20;99.90
2973;DHT22;1496;51.404;7.232;2023-08-07T05:40:21;12.20;99.90
2973;DHT22;1496;51.404;7.232;2023-08-07T05:42:47;12.20;99.90
2973;DHT22;1496;51.404;7.232;2023-08-07T05:45:12;12.10;99.90
2973;DHT22;1496;51.404;7.232;2023-08-07T05:47:38;12.20;99.90
2973;DHT22;1496;51.404;7.232;2023-08-07T05:50:04;12.20;99.90
2973;DHT22;1496;51.404;7.232;2023-08-07T05:52:30;12.30;99.90
2973;DHT22;1496;51.404;7.232;2023-08-07T05:54:55;12.30;99.90
2973;DHT22;1496;51.404;7.232;2023-08-07T05:57:21;12.40;99.90
2973;DHT22;1496;51.404;7.232;2023-08-07T05:59:47;12.40;99.90
2973;DHT22;1496;51.404;7.232;2023-08-07T06:02:12;12.40;99.90
2973;DHT22;1496;51.404;7.232;2023-08-07T06:04:38;12.40;99.90
2973;DHT22;1496;51.404;7.232;2023-08-07T06:07:05;12.30;99.90
2973;DHT22;1496;51.404;7.232;2023-08-07T06:09:31;12.30;99.90
2973;DHT22;1496;51.404;7.232;2023-08-07T06:11:56;12.30;99.90
2973;DHT22;1496;51.404;7.232;2023-08-07T06:14:22;12.30;99.90
2973;DHT22;1496;51.404;7.232;2023-08-07T06:16:51;12.30;99.90
2973;DHT22;1496;51.404;7.232;2023-08-07T06:19:16;12.30;99.90
2973;DHT22;1496;51.404;7.232;2023-08-07T06:21:43;12.20;99.90
2973;DHT22;1496;51.404;7.232;2023-08-07T06:24:09;12.20;99.90
2973;DHT22;1496;51.404;7.232;2023-08-07T06:26:34;12.20;99.90
2973;DHT22;1496;51.404;7.232;2023-08-07T06:29:00;12.30;99.90
2973;DHT22;1496;51.404;7.232;2023-08-07T06:31:26;12.20;99.90
2973;DHT22;1496;51.404;7.232;2023-08-07T06:33:51;12.20;99.90
2973;DHT22;1496;51.404;7.232;2023-08-07T06:36:17;12.30;99.90
2973;DHT22;1496;51.404;7.232;2023-08-07T06:38:43;12.30;99.90
2973;DHT22;1496;51.404;7.232;2023-08-07T06:41:09;12.30;99.90
2973;DHT22;1496;51.404;7.232;2023-08-07T06:43:35;12.40;99.90
2973;DHT22;1496;51.404;7.232;2023-08-07T06:46:01;12.30;99.90
2973;DHT22;1496;51.404;7.232;2023-08-07T06:48:26;12.30;99.90
2973;DHT22;1496;51.404;7.232;2023-08-07T06:50:52;12.30;99.90
2973;DHT22;1496;51.404;7.232;2023-08-07T06:53:18;12.40;99.90
2973;DHT22;1496;51.404;7.232;2023-08-07T06:55:44;12.40;99.90
2973;DHT22;1496;51.404;7.232;2023-08-07T06:58:10;12.40;99.90
2973;DHT22;1496;51.404;7.232;2023-08-07T07:00:36;12.40;99.90
2973;DHT22;1496;51.404;7.232;2023-08-07T07:03:02;12.40;99.90
2973;DHT22;1496;51.404;7.232;2023-08-07T07:05:29;12.50;99.90
2973;DHT22;1496;51.404;7.232;2023-08-07T07:07:56;12.50;99.90
2973;DHT22;1496;51.404;7.232;2023-08-07T07:10:21;12.50;99.90
2973;DHT22;1496;51.404;7.232;2023-08-07T07:12:47;12.50;99.90
2973;DHT22;1496;51.404;7.232;2023-08-07T07:15:13;12.50;99.90
2973;DHT22;1496;51.404;7.232;2023-08-07T07:17:39;12.70;99.90
2973;DHT22;1496;51.404;7.232;2023-08-07T07:20:05;12.60;99.90
2973;DHT22;1496;51.404;7.232;2023-08-07T07:22:31;12.60;99.90
2973;DHT22;1496;51.404;7.232;2023-08-07T07:24:57;12.60;99.90
2973;DHT22;1496;51.404;7.232;2023-08-07T07:27:23;12.60;99.90
2973;DHT22;1496;51.404;7.232;2023-08-07T07:29:51;12.60;99.90
2973;DHT22;1496;51.404;7.232;2023-08-07T07:32:17;12.60;99.90
2973;DHT22;1496;51.404;7.232;2023-08-07T07:34:43;12.60;99.90
2973;DHT22;1496;51.404;7.232;2023-08-07T07:37:10;12.60;99.90
2973;DHT22;1496;51.404;7.232;2023-08-07T07:39:36;12.60;99.90
2973;DHT22;1496;51.404;7.232;2023-08-07T07:42:02;12.60;99.90
2973;DHT22;1496;51.404;7.232;2023-08-07T07:44:29;12.60;99.90
2973;DHT22;1496;51.404;7.232;2023-08-07T07:46:55;12.60;99.90
2973;DHT22;1496;51.404;7.232;2023-08-07T07:49:20;12.60;99.90
2973;DHT22;1496;51.404;7.232;2023-08-07T07:51:46;12.70;99.90
2973;DHT22;1496;51.404;7.232;2023-08-07T07:54:12;12.70;99.90
2973;DHT22;1496;51.404;7.232;2023-08-07T07:56:37;12.70;99.90
2973;DHT22;1496;51.404;7.232;2023-08-07T07:59:05;12.70;99.90
2973;DHT22;1496;51.404;7.232;2023-08-07T08:01:31;12.80;99.90
2973;DHT22;1496;51.404;7.232;2023-08-07T08:03:57;12.80;99.90
2973;DHT22;1496;51.404;7.232;2023-08-07T08:06:22;12.70;99.90
2973;DHT22;1496;51.404;7.232;2023-08-07T08:08:48;12.70;99.90
2973;DHT22;1496;51.404;7.232;2023-08-07T08:11:14;12.80;99.90
2973;DHT22;1496;51.404;7.232;2023-08-07T08:13:39;12.70;99.90
2973;DHT22;1496;51.404;7.232;2023-08-07T08:16:07;12.70;99.90
2973;DHT22;1496;51.404;7.232;2023-08-07T08:18:32;12.70;99.90
2973;DHT22;1496;51.404;7.232;2023-08-07T08:20:58;12.70;99.90
2973;DHT22;1496;51.404;7.232;2023-08-07T08:23:24;12.70;99.90
2973;DHT22;1496;51.404;7.232;2023-08-07T08:25:50;12.70;99.90
2973;DHT22;1496;51.404;7.232;2023-08-07T08:28:17;12.80;99.90
2973;DHT22;1496;51.404;7.232;2023-08-07T08:30:43;12.80;99.90
2973;DHT22;1496;51.404;7.232;2023-08-07T08:33:08;12.90;99.90
2973;DHT22;1496;51.404;7.232;2023-08-07T08:35:37;12.90;99.90
2973;DHT22;1496;51.404;7.232;2023-08-07T08:38:03;13.10;99.90
2973;DHT22;1496;51.404;7.232;2023-08-07T08:40:30;13.10;99.90
2973;DHT22;1496;51.404;7.232;2023-08-07T08:42:58;13.10;99.90
2973;DHT22;1496;51.404;7.232;2023-08-07T08:45:26;13.00;99.90
2973;DHT22;1496;51.404;7.232;2023-08-07T08:47:56;13.00;99.90
2973;DHT22;1496;51.404;7.232;2023-08-07T08:50:24;13.10;99.90
2973;DHT22;1496;51.404;7.232;2023-08-07T08:52:52;13.10;99.90
2973;DHT22;1496;51.404;7.232;2023-08-07T08:55:19;13.00;99.90
2973;DHT22;1496;51.404;7.232;2023-08-07T08:57:46;13.00;99.90
2973;DHT22;1496;51.404;7.232;2023-08-07T09:00:13;13.00;99.90
2973;DHT22;1496;51.404;7.232;2023-08-07T09:02:50;13.00;99.90
2973;DHT22;1496;51.404;7.232;2023-08-07T09:05:17;13.10;99.90
2973;DHT22;1496;51.404;7.232;2023-08-07T09:07:43;13.20;99.90
2973;DHT22;1496;51.404;7.232;2023-08-07T09:10:13;13.20;99.90
2973;DHT22;1496;51.404;7.232;2023-08-07T09:12:49;13.20;99.90
2973;DHT22;1496;51.404;7.232;2023-08-07T09:15:19;13.40;99.90
2973;DHT22;1496;51.404;7.232;2023-08-07T09:17:46;13.50;99.90
2973;DHT22;1496;51.404;7.232;2023-08-07T09:20:12;13.60;99.90
2973;DHT22;1496;51.404;7.232;2023-08-07T09:22:41;13.50;99.90
2973;DHT22;1496;51.404;7.232;2023-08-07T09:25:07;13.60;99.90
2973;DHT22;1496;51.404;7.232;2023-08-07T09:27:38;13.50;99.90
2973;DHT22;1496;51.404;7.232;2023-08-07T09:30:05;13.50;99.90
2973;DHT22;1496;51.404;7.232;2023-08-07T09:32:33;13.50;99.90
2973;DHT22;1496;51.404;7.232;2023-08-07T09:34:59;13.50;99.90
2973;DHT22;1496;51.404;7.232;2023-08-07T09:37:24;13.60;99.90
2973;DHT22;1496;51.404;7.232;2023-08-07T09:39:51;13.70;99.90
2973;DHT22;1496;51.404;7.232;2023-08-07T09:42:16;13.90;99.90
2973;DHT22;1496;51.404;7.232;2023-08-07T09:44:43;13.80;99.90
2973;DHT22;1496;51.404;7.232;2023-08-07T09:47:17;13.80;99.90
2973;DHT22;1496;51.404;7.232;2023-08-07T09:49:44;13.80;99.90
2973;DHT22;1496;51.404;7.232;2023-08-07T09:52:12;14.00;99.90
2973;DHT22;1496;51.404;7.232;2023-08-07T09:54:44;14.10;99.90
2973;DHT22;1496;51.404;7.232;2023-08-07T09:57:09;14.10;99.90
2973;DHT22;1496;51.404;7.232;2023-08-07T09:59:35;14.00;99.90
2973;DHT22;1496;51.404;7.232;2023-08-07T10:02:02;13.90;99.90
2973;DHT22;1496;51.404;7.232;2023-08-07T10:04:29;13.70;99.90
2973;DHT22;1496;51.404;7.232;2023-08-07T10:06:55;13.60;99.90
2973;DHT22;1496;51.404;7.232;2023-08-07T10:09:21;13.60;99.90
2973;DHT22;1496;51.404;7.232;2023-08-07T10:11:48;13.60;99.90
2973;DHT22;1496;51.404;7.232;2023-08-07T10:14:14;13.50;99.90
2973;DHT22;1496;51.404;7.232;2023-08-07T10:16:41;13.50;99.90
2973;DHT22;1496;51.404;7.232;2023-08-07T10:19:10;13.70;99.90
2973;DHT22;1496;51.404;7.232;2023-08-07T10:21:39;13.70;99.90
2973;DHT22;1496;51.404;7.232;2023-08-07T10:24:05;13.80;99.90
2973;DHT22;1496;51.404;7.232;2023-08-07T10:26:35;14.00;99.90
2973;DHT22;1496;51.404;7.232;2023-08-07T10:29:03;14.00;99.90
2973;DHT22;1496;51.404;7.232;2023-08-07T10:31:30;14.10;99.90
2973;DHT22;1496;51.404;7.232;2023-08-07T10:33:57;14.10;99.90
2973;DHT22;1496;51.404;7.232;2023-08-07T10:36:23;14.10;99.90
2973;DHT22;1496;51.404;7.232;2023-08-07T10:39:09;14.00;99.90
2973;DHT22;1496;51.404;7.232;2023-08-07T10:41:45;14.20;99.90
2973;DHT22;1496;51.404;7.232;2023-08-07T10:44:22;14.10;99.90
2973;DHT22;1496;51.404;7.232;2023-08-07T10:46:55;14.00;99.90
2973;DHT22;1496;51.404;7.232;2023-08-07T10:49:31;14.00;99.90
2973;DHT22;1496;51.404;7.232;2023-08-07T10:51:58;14.20;99.90
2973;DHT22;1496;51.404;7.232;2023-08-07T10:54:24;14.40;99.90
2973;DHT22;1496;51.404;7.232;2023-08-07T10:56:54;14.60;99.90
2973;DHT22;1496;51.404;7.232;2023-08-07T10:59:20;14.40;99.90
2973;DHT22;1496;51.404;7.232;2023-08-07T11:01:51;14.30;99.90
2973;DHT22;1496;51.404;7.232;2023-08-07T11:04:17;14.20;99.90
2973;DHT22;1496;51.404;7.232;2023-08-07T11:06:47;14.10;99.90
2973;DHT22;1496;51.404;7.232;2023-08-07T11:09:13;14.00;99.90
2973;DHT22;1496;51.404;7.232;2023-08-07T11:11:43;14.00;99.90
2973;DHT22;1496;51.404;7.232;2023-08-07T11:14:11;14.10;99.90
2973;DHT22;1496;51.404;7.232;2023-08-07T11:16:37;14.20;99.90
2973;DHT22;1496;51.404;7.232;2023-08-07T11:19:03;14.10;99.90
2973;DHT22;1496;51.404;7.232;2023-08-07T11:21:33;14.00;99.90
2973;DHT22;1496;51.404;7.232;2023-08-07T11:23:59;14.10;99.90
2973;DHT22;1496;51.404;7.232;2023-08-07T11:26:25;14.20;99.90
2973;DHT22;1496;51.404;7.232;2023-08-07T11:28:51;14.30;99.90
2973;DHT22;1496;51.404;7.232;2023-08-07T11:31:18;14.50;99.90
2973;DHT22;1496;51.404;7.232;2023-08-07T11:33:44;14.60;99.90
2973;DHT22;1496;51.404;7.232;2023-08-07T11:36:11;15.10;99.90
2973;DHT22;1496;51.404;7.232;2023-08-07T11:38:42;15.10;99.90
2973;DHT22;1496;51.404;7.232;2023-08-07T11:41:13;15.20;99.90
2973;DHT22;1496;51.404;7.232;2023-08-07T11:43:40;15.40;99.90
2973;DHT22;1496;51.404;7.232;2023-08-07T11:46:08;15.40;99.90
2973;DHT22;1496;51.404;7.232;2023-08-07T11:48:37;15.70;99.90
2973;DHT22;1496;51.404;7.232;2023-08-07T11:51:04;15.80;99.90
2973;DHT22;1496;51.404;7.232;2023-08-07T11:53:33;15.50;99.90
2973;DHT22;1496;51.404;7.232;2023-08-07T11:56:05;15.30;99.90
2973;DHT22;1496;51.404;7.232;2023-08-07T11:58:36;15.30;99.90
2973;DHT22;1496;51.404;7.232;2023-08-07T12:01:09;15.30;99.90
2973;DHT22;1496;51.404;7.232;2023-08-07T12:03:36;15.00;99.90
2973;DHT22;1496;51.404;7.232;2023-08-07T12:06:07;14.90;99.90
2973;DHT22;1496;51.404;7.232;2023-08-07T12:08:34;14.70;99.90
2973;DHT22;1496;51.404;7.232;2023-08-07T12:11:02;14.80;99.90
2973;DHT22;1496;51.404;7.232;2023-08-07T12:13:29;15.10;99.90
2973;DHT22;1496;51.404;7.232;2023-08-07T12:15:56;15.70;99.90
2973;DHT22;1496;51.404;7.232;2023-08-07T12:18:23;15.80;1.00
2973;DHT22;1496;51.404;7.232;2023-08-07T12:20:50;16.00;1.00
2973;DHT22;1496;51.404;7.232;2023-08-07T12:23:17;16.30;70.90
2973;DHT22;1496;51.404;7.232;2023-08-07T12:25:44;16.40;32.60
2973;DHT22;1496;51.404;7.232;2023-08-07T12:28:10;16.60;1.00
2973;DHT22;1496;51.404;7.232;2023-08-07T12:30:39;16.70;1.00
2973;DHT22;1496;51.404;7.232;2023-08-07T12:33:05;16.80;1.00
2973;DHT22;1496;51.404;7.232;2023-08-07T12:35:34;17.00;1.00
2973;DHT22;1496;51.404;7.232;2023-08-07T12:38:00;17.10;1.00
2973;DHT22;1496;51.404;7.232;2023-08-07T12:40:28;16.90;99.90
2973;DHT22;1496;51.404;7.232;2023-08-07T12:42:54;16.50;99.90
2973;DHT22;1496;51.404;7.232;2023-08-07T12:45:20;16.40;99.90
2973;DHT22;1496;51.404;7.232;2023-08-07T12:47:46;16.40;99.90
2973;DHT22;1496;51.404;7.232;2023-08-07T12:50:11;16.30;99.90
2973;DHT22;1496;51.404;7.232;2023-08-07T12:52:38;16.10;99.90
2973;DHT22;1496;51.404;7.232;2023-08-07T12:55:03;16.10;99.90
2973;DHT22;1496;51.404;7.232;2023-08-07T12:57:31;15.90;99.90
2973;DHT22;1496;51.404;7.232;2023-08-07T12:59:57;15.90;99.90
2973;DHT22;1496;51.404;7.232;2023-08-07T13:02:22;15.90;99.90
2973;DHT22;1496;51.404;7.232;2023-08-07T13:04:48;15.90;99.90
2973;DHT22;1496;51.404;7.232;2023-08-07T13:07:14;16.40;99.90
2973;DHT22;1496;51.404;7.232;2023-08-07T13:09:39;16.60;99.90
2973;DHT22;1496;51.404;7.232;2023-08-07T13:12:05;16.70;99.90
2973;DHT22;1496;51.404;7.232;2023-08-07T13:14:31;16.60;99.90
2973;DHT22;1496;51.404;7.232;2023-08-07T13:16:56;16.50;99.90
2973;DHT22;1496;51.404;7.232;2023-08-07T13:19:22;16.30;99.90
2973;DHT22;1496;51.404;7.232;2023-08-07T13:21:48;16.30;99.90
2973;DHT22;1496;51.404;7.232;2023-08-07T13:24:14;16.20;99.90
2973;DHT22;1496;51.404;7.232;2023-08-07T13:26:39;16.10;99.90
2973;DHT22;1496;51.404;7.232;2023-08-07T13:29:13;16.40;99.90
2973;DHT22;1496;51.404;7.232;2023-08-07T13:31:40;16.70;99.90
2973;DHT22;1496;51.404;7.232;2023-08-07T13:34:11;17.10;99.90
2973;DHT22;1496;51.404;7.232;2023-08-07T13:36:38;17.40;99.90
2973;DHT22;1496;51.404;7.232;2023-08-07T13:39:07;17.40;99.90
2973;DHT22;1496;51.404;7.232;2023-08-07T13:41:34;17.50;99.90
2973;DHT22;1496;51.404;7.232;2023-08-07T13:44:00;17.60;99.90
2973;DHT22;1496;51.404;7.232;2023-08-07T13:46:26;17.60;99.90
2973;DHT22;1496;51.404;7.232;2023-08-07T13:48:52;17.70;99.90
2973;DHT22;1496;51.404;7.232;2023-08-07T13:51:19;17.80;99.90
2973;DHT22;1496;51.404;7.232;2023-08-07T13:53:45;17.40;99.90
2973;DHT22;1496;51.404;7.232;2023-08-07T13:56:11;17.30;99.90
2973;DHT22;1496;51.404;7.232;2023-08-07T13:58:41;17.30;99.90
2973;DHT22;1496;51.404;7.232;2023-08-07T14:01:07;17.10;99.90
2973;DHT22;1496;51.404;7.232;2023-08-07T14:03:33;17.20;99.90
2973;DHT22;1496;51.404;7.232;2023-08-07T14:06:00;17.40;99.90
2973;DHT22;1496;51.404;7.232;2023-08-07T14:08:25;17.50;99.90
2973;DHT22;1496;51.404;7.232;2023-08-07T14:10:51;17.20;99.90
2973;DHT22;1496;51.404;7.232;2023-08-07T14:13:17;17.30;99.90
2973;DHT22;1496;51.404;7.232;2023-08-07T14:15:42;17.60;99.90
2973;DHT22;1496;51.404;7.232;2023-08-07T14:18:08;17.40;99.90
2973;DHT22;1496;51.404;7.232;2023-08-07T14:20:34;17.30;99.90
2973;DHT22;1496;51.404;7.232;2023-08-07T14:23:00;17.10;99.90
2973;DHT22;1496;51.404;7.232;2023-08-07T14:25:26;17.10;99.90
2973;DHT22;1496;51.404;7.232;2023-08-07T14:27:52;17.10;99.90
2973;DHT22;1496;51.404;7.232;2023-08-07T14:30:19;17.00;99.90
2973;DHT22;1496;51.404;7.232;2023-08-07T14:32:45;16.80;99.90
2973;DHT22;1496;51.404;7.232;2023-08-07T14:35:13;16.70;99.90
2973;DHT22;1496;51.404;7.232;2023-08-07T14:37:39;16.80;99.90
2973;DHT22;1496;51.404;7.232;2023-08-07T14:40:06;17.30;99.90
2973;DHT22;1496;51.404;7.232;2023-08-07T14:42:33;17.30;99.90
2973;DHT22;1496;51.404;7.232;2023-08-07T14:44:59;17.30;99.90
2973;DHT22;1496;51.404;7.232;2023-08-07T14:47:25;17.50;99.90
2973;DHT22;1496;51.404;7.232;2023-08-07T14:49:51;17.80;99.90
2973;DHT22;1496;51.404;7.232;2023-08-07T14:52:17;17.80;99.90
2973;DHT22;1496;51.404;7.232;2023-08-07T14:54:42;17.90;99.90
2973;DHT22;1496;51.404;7.232;2023-08-07T14:57:08;18.00;99.90
2973;DHT22;1496;51.404;7.232;2023-08-07T14:59:34;17.90;99.90
2973;DHT22;1496;51.404;7.232;2023-08-07T15:02:00;17.80;99.90
2973;DHT22;1496;51.404;7.232;2023-08-07T15:04:28;17.90;99.90
2973;DHT22;1496;51.404;7.232;2023-08-07T15:06:53;18.10;99.90
2973;DHT22;1496;51.404;7.232;2023-08-07T15:09:19;18.00;99.90
2973;DHT22;1496;51.404;7.232;2023-08-07T15:11:48;17.80;99.90
2973;DHT22;1496;51.404;7.232;2023-08-07T15:14:14;17.50;99.90
2973;DHT22;1496;51.404;7.232;2023-08-07T15:16:40;17.40;99.90
2973;DHT22;1496;51.404;7.232;2023-08-07T15:19:07;17.30;99.90
2973;DHT22;1496;51.404;7.232;2023-08-07T15:21:32;17.20;99.90
2973;DHT22;1496;51.404;7.232;2023-08-07T15:23:58;17.20;99.90
2973;DHT22;1496;51.404;7.232;2023-08-07T15:26:24;17.30;99.90
2973;DHT22;1496;51.404;7.232;2023-08-07T15:28:49;17.50;99.90
2973;DHT22;1496;51.404;7.232;2023-08-07T15:31:15;17.70;99.90
2973;DHT22;1496;51.404;7.232;2023-08-07T15:33:41;18.10;99.90
2973;DHT22;1496;51.404;7.232;2023-08-07T15:36:09;18.10;99.90
2973;DHT22;1496;51.404;7.232;2023-08-07T15:38:35;18.20;99.90
2973;DHT22;1496;51.404;7.232;2023-08-07T15:41:03;17.90;99.90
2973;DHT22;1496;51.404;7.232;2023-08-07T15:43:29;17.70;99.90
2973;DHT22;1496;51.404;7.232;2023-08-07T15:45:55;17.70;99.90
2973;DHT22;1496;51.404;7.232;2023-08-07T15:48:21;17.50;99.90
2973;DHT22;1496;51.404;7.232;2023-08-07T15:50:46;17.40;99.90
2973;DHT22;1496;51.404;7.232;2023-08-07T15:53:12;17.30;99.90
2973;DHT22;1496;51.404;7.232;2023-08-07T15:55:38;17.20;99.90
2973;DHT22;1496;51.404;7.232;2023-08-07T15:58:05;17.10;99.90
2973;DHT22;1496;51.404;7.232;2023-08-07T16:00:32;17.00;99.90
2973;DHT22;1496;51.404;7.232;2023-08-07T16:03:05;17.00;99.90